sensor_id;sensor_type;location;lat;lon;timestamp;pressure;altitude;pressure_sealevel;temperature;humidity
41102;BME280;26845;50.190;19.178;2023-05-19T00:01:23;99587.73;;;8.51;90.77
41102;BME280;26845;50.190;19.178;2023-05-19T00:03:57;99588.08;;;8.51;90.84
41102;BME280;26845;50.190;19.178;2023-05-19T00:06:40;99584.67;;;8.51;91.01
41102;BME280;26845;50.190;19.178;2023-05-19T00:09:14;99588.23;;;8.52;91.16
41102;BME280;26845;50.190;19.178;2023-05-19T00:11:47;99588.31;;;8.54;91.23
41102;BME280;26845;50.190;19.178;2023-05-19T00:14:21;99587.08;;;8.61;91.43
41102;BME280;26845;50.190;19.178;2023-05-19T00:16:55;99586.42;;;8.70;91.42
41102;BME280;26845;50.190;19.178;2023-05-19T00:19:29;99581.20;;;8.79;91.45
41102;BME280;26845;50.190;19.178;2023-05-19T00:22:02;99579.42;;;8.81;91.33
41102;BME280;26845;50.190;19.178;2023-05-19T00:24:45;99580.67;;;8.85;91.26
41102;BME280;26845;50.190;19.178;2023-05-19T00:27:39;99574.95;;;8.87;91.34
41102;BME280;26845;50.190;19.178;2023-05-19T00:30:13;99571.61;;;8.88;91.11
41102;BME280;26845;50.190;19.178;2023-05-19T00:32:46;99566.23;;;8.90;91.37
41102;BME280;26845;50.190;19.178;2023-05-19T00:35:20;99566.05;;;8.93;91.30
41102;BME280;26845;50.190;19.178;2023-05-19T00:38:18;99564.36;;;8.95;91.27
41102;BME280;26845;50.190;19.178;2023-05-19T00:40:51;99566.67;;;8.98;91.11
41102;BME280;26845;50.190;19.178;2023-05-19T00:43:25;99562.55;;;9.00;91.19
41102;BME280;26845;50.190;19.178;2023-05-19T00:45:58;99562.98;;;9.02;91.20
41102;BME280;26845;50.190;19.178;2023-05-19T00:48:32;99564.54;;;8.96;90.92
41102;BME280;26845;50.190;19.178;2023-05-19T00:51:06;99560.73;;;8.92;91.14
41102;BME280;26845;50.190;19.178;2023-05-19T00:53:39;99563.48;;;8.95;91.53
41102;BME280;26845;50.190;19.178;2023-05-19T00:56:13;99555.81;;;8.99;91.16
41102;BME280;26845;50.190;19.178;2023-05-19T00:58:47;99557.88;;;8.95;90.71
41102;BME280;26845;50.190;19.178;2023-05-19T01:01:20;99561.47;;;8.88;90.85
41102;BME280;26845;50.190;19.178;2023-05-19T01:03:54;99560.83;;;8.86;90.92
41102;BME280;26845;50.190;19.178;2023-05-19T01:06:30;99563.27;;;8.82;91.07
41102;BME280;26845;50.190;19.178;2023-05-19T01:09:09;99553.07;;;8.76;91.26
41102;BME280;26845;50.190;19.178;2023-05-19T01:11:43;99549.81;;;8.82;91.37
41102;BME280;26845;50.190;19.178;2023-05-19T01:14:16;99552.23;;;8.85;91.29
41102;BME280;26845;50.190;19.178;2023-05-19T01:19:51;99546.10;;;8.91;91.16
41102;BME280;26845;50.190;19.178;2023-05-19T01:28:35;99552.42;;;8.96;91.23
41102;BME280;26845;50.190;19.178;2023-05-19T01:31:04;99545.11;;;8.97;91.34
41102;BME280;26845;50.190;19.178;2023-05-19T01:33:38;99539.30;;;8.94;91.10
41102;BME280;26845;50.190;19.178;2023-05-19T01:36:11;99536.88;;;8.93;91.45
41102;BME280;26845;50.190;19.178;2023-05-19T01:38:45;99540.64;;;8.95;91.34
41102;BME280;26845;50.190;19.178;2023-05-19T01:41:18;99540.73;;;8.91;91.16
41102;BME280;26845;50.190;19.178;2023-05-19T01:43:52;99538.65;;;8.85;91.24
41102;BME280;26845;50.190;19.178;2023-05-19T01:46:36;99541.34;;;8.81;91.40
41102;BME280;26845;50.190;19.178;2023-05-19T01:49:10;99544.94;;;8.84;91.55
41102;BME280;26845;50.190;19.178;2023-05-19T01:51:44;99536.86;;;8.87;91.48
41102;BME280;26845;50.190;19.178;2023-05-19T01:54:48;99536.66;;;8.77;91.33
41102;BME280;26845;50.190;19.178;2023-05-19T02:00:26;99525.61;;;8.61;91.21
41102;BME280;26845;50.190;19.178;2023-05-19T02:05:56;99532.16;;;8.49;91.57
41102;BME280;26845;50.190;19.178;2023-05-19T02:08:42;99526.13;;;8.51;91.79
41102;BME280;26845;50.190;19.178;2023-05-19T02:11:14;99524.18;;;8.48;91.70
41102;BME280;26845;50.190;19.178;2023-05-19T02:13:48;99518.38;;;8.46;91.83
41102;BME280;26845;50.190;19.178;2023-05-19T02:16:20;99511.37;;;8.43;91.58
41102;BME280;26845;50.190;19.178;2023-05-19T02:18:54;99502.56;;;8.41;91.81
41102;BME280;26845;50.190;19.178;2023-05-19T02:21:28;99495.64;;;8.36;91.96
41102;BME280;26845;50.190;19.178;2023-05-19T02:24:01;99496.65;;;8.34;92.02
41102;BME280;26845;50.190;19.178;2023-05-19T02:26:35;99497.52;;;8.35;92.03
41102;BME280;26845;50.190;19.178;2023-05-19T02:29:08;99496.23;;;8.40;92.23
41102;BME280;26845;50.190;19.178;2023-05-19T02:31:42;99492.70;;;8.43;92.27
41102;BME280;26845;50.190;19.178;2023-05-19T02:34:16;99496.13;;;8.42;92.22
41102;BME280;26845;50.190;19.178;2023-05-19T02:36:50;99496.13;;;8.43;92.33
41102;BME280;26845;50.190;19.178;2023-05-19T02:39:24;99498.13;;;8.43;92.09
41102;BME280;26845;50.190;19.178;2023-05-19T02:42:01;99506.27;;;8.42;92.33
41102;BME280;26845;50.190;19.178;2023-05-19T02:44:35;99510.88;;;8.47;92.38
41102;BME280;26845;50.190;19.178;2023-05-19T02:47:32;99509.64;;;8.53;92.57
41102;BME280;26845;50.190;19.178;2023-05-19T02:50:06;99503.73;;;8.60;92.52
41102;BME280;26845;50.190;19.178;2023-05-19T02:52:39;99504.91;;;8.65;92.30
41102;BME280;26845;50.190;19.178;2023-05-19T02:55:13;99509.02;;;8.63;92.24
41102;BME280;26845;50.190;19.178;2023-05-19T02:57:46;99504.65;;;8.61;92.18
41102;BME280;26845;50.190;19.178;2023-05-19T03:00:20;99507.16;;;8.62;92.24
41102;BME280;26845;50.190;19.178;2023-05-19T03:02:54;99505.95;;;8.60;92.13
41102;BME280;26845;50.190;19.178;2023-05-19T03:05:30;99503.50;;;8.61;92.06
41102;BME280;26845;50.190;19.178;2023-05-19T03:08:03;99499.58;;;8.59;92.18
41102;BME280;26845;50.190;19.178;2023-05-19T03:10:37;99497.92;;;8.58;92.16
41102;BME280;26845;50.190;19.178;2023-05-19T03:13:11;99504.16;;;8.52;92.05
41102;BME280;26845;50.190;19.178;2023-05-19T03:15:44;99500.11;;;8.52;92.28
41102;BME280;26845;50.190;19.178;2023-05-19T03:18:18;99510.71;;;8.53;92.25
41102;BME280;26845;50.190;19.178;2023-05-19T03:21:15;99506.46;;;8.55;92.36
41102;BME280;26845;50.190;19.178;2023-05-19T03:23:49;99506.32;;;8.52;92.26
41102;BME280;26845;50.190;19.178;2023-05-19T03:26:22;99511.92;;;8.52;92.35
41102;BME280;26845;50.190;19.178;2023-05-19T03:28:56;99510.04;;;8.53;92.41
41102;BME280;26845;50.190;19.178;2023-05-19T03:31:29;99508.25;;;8.53;92.34
41102;BME280;26845;50.190;19.178;2023-05-19T03:34:35;99503.84;;;8.59;92.66
41102;BME280;26845;50.190;19.178;2023-05-19T03:37:12;99505.02;;;8.66;92.73
41102;BME280;26845;50.190;19.178;2023-05-19T03:39:55;99499.75;;;8.74;92.80
41102;BME280;26845;50.190;19.178;2023-05-19T03:42:29;99502.76;;;8.81;92.66
41102;BME280;26845;50.190;19.178;2023-05-19T03:45:03;99503.92;;;8.80;92.48
41102;BME280;26845;50.190;19.178;2023-05-19T03:47:36;99509.04;;;8.76;92.39
41102;BME280;26845;50.190;19.178;2023-05-19T03:50:10;99513.98;;;8.78;92.55
41102;BME280;26845;50.190;19.178;2023-05-19T03:52:46;99512.80;;;8.79;92.49
41102;BME280;26845;50.190;19.178;2023-05-19T03:55:29;99515.77;;;8.81;92.72
41102;BME280;26845;50.190;19.178;2023-05-19T03:58:18;99518.29;;;8.86;92.98
41102;BME280;26845;50.190;19.178;2023-05-19T04:01:09;99517.74;;;8.78;92.44
41102;BME280;26845;50.190;19.178;2023-05-19T04:04:16;99524.77;;;8.82;92.90
41102;BME280;26845;50.190;19.178;2023-05-19T04:07:16;99521.75;;;8.84;92.77
41102;BME280;26845;50.190;19.178;2023-05-19T04:10:08;99523.41;;;8.92;93.01
41102;BME280;26845;50.190;19.178;2023-05-19T04:13:10;99521.39;;;8.95;92.92
41102;BME280;26845;50.190;19.178;2023-05-19T04:16:17;99520.30;;;8.92;92.84
41102;BME280;26845;50.190;19.178;2023-05-19T04:18:53;99523.11;;;8.95;93.02
41102;BME280;26845;50.190;19.178;2023-05-19T04:21:59;99516.05;;;8.98;93.15
41102;BME280;26845;50.190;19.178;2023-05-19T04:24:33;99522.60;;;9.04;93.07
41102;BME280;26845;50.190;19.178;2023-05-19T04:27:06;99514.11;;;9.10;93.38
41102;BME280;26845;50.190;19.178;2023-05-19T04:29:40;99517.84;;;9.17;93.25
41102;BME280;26845;50.190;19.178;2023-05-19T04:32:24;99523.52;;;9.19;93.06
41102;BME280;26845;50.190;19.178;2023-05-19T04:35:01;99525.11;;;9.22;93.19
41102;BME280;26845;50.190;19.178;2023-05-19T04:37:34;99524.88;;;9.25;93.01
41102;BME280;26845;50.190;19.178;2023-05-19T04:40:08;99521.55;;;9.23;93.01
41102;BME280;26845;50.190;19.178;2023-05-19T04:42:42;99523.27;;;9.29;93.52
41102;BME280;26845;50.190;19.178;2023-05-19T04:45:15;99523.02;;;9.34;93.28
41102;BME280;26845;50.190;19.178;2023-05-19T04:47:51;99522.84;;;9.34;93.17
41102;BME280;26845;50.190;19.178;2023-05-19T04:50:25;99527.67;;;9.34;93.23
41102;BME280;26845;50.190;19.178;2023-05-19T04:52:58;99524.61;;;9.35;93.34
41102;BME280;26845;50.190;19.178;2023-05-19T04:55:32;99524.67;;;9.34;93.32
41102;BME280;26845;50.190;19.178;2023-05-19T04:58:05;99528.39;;;9.34;93.39
41102;BME280;26845;50.190;19.178;2023-05-19T05:00:39;99527.66;;;9.36;93.25
41102;BME280;26845;50.190;19.178;2023-05-19T05:03:22;99523.49;;;9.37;93.52
41102;BME280;26845;50.190;19.178;2023-05-19T05:05:56;99525.75;;;9.39;93.50
41102;BME280;26845;50.190;19.178;2023-05-19T05:08:29;99527.27;;;9.43;93.51
41102;BME280;26845;50.190;19.178;2023-05-19T05:11:03;99525.38;;;9.47;93.68
41102;BME280;26845;50.190;19.178;2023-05-19T05:13:37;99529.48;;;9.54;93.89
41102;BME280;26845;50.190;19.178;2023-05-19T05:16:11;99529.39;;;9.59;93.67
41102;BME280;26845;50.190;19.178;2023-05-19T05:18:44;99529.36;;;9.61;93.57
41102;BME280;26845;50.190;19.178;2023-05-19T05:21:18;99531.59;;;9.64;93.65
41102;BME280;26845;50.190;19.178;2023-05-19T05:23:52;99528.16;;;9.65;93.50
41102;BME280;26845;50.190;19.178;2023-05-19T05:28:59;99528.71;;;9.63;93.48
41102;BME280;26845;50.190;19.178;2023-05-19T05:31:32;99529.15;;;9.64;93.41
41102;BME280;26845;50.190;19.178;2023-05-19T05:34:11;99532.41;;;9.62;93.43
41102;BME280;26845;50.190;19.178;2023-05-19T05:36:45;99528.68;;;9.62;93.56
41102;BME280;26845;50.190;19.178;2023-05-19T05:39:18;99527.31;;;9.66;94.06
41102;BME280;26845;50.190;19.178;2023-05-19T05:42:15;99533.88;;;9.76;93.94
41102;BME280;26845;50.190;19.178;2023-05-19T05:44:59;99538.25;;;9.82;93.69
41102;BME280;26845;50.190;19.178;2023-05-19T05:47:33;99533.98;;;9.82;93.56
41102;BME280;26845;50.190;19.178;2023-05-19T05:50:09;99537.63;;;9.84;93.68
41102;BME280;26845;50.190;19.178;2023-05-19T05:52:41;99538.39;;;9.91;93.87
41102;BME280;26845;50.190;19.178;2023-05-19T05:55:14;99532.76;;;10.00;93.91
41102;BME280;26845;50.190;19.178;2023-05-19T05:57:48;99535.16;;;10.04;93.83
41102;BME280;26845;50.190;19.178;2023-05-19T06:00:27;99538.33;;;10.09;93.45
41102;BME280;26845;50.190;19.178;2023-05-19T06:03:10;99542.34;;;10.08;93.69
41102;BME280;26845;50.190;19.178;2023-05-19T06:05:44;99546.48;;;10.16;93.82
41102;BME280;26845;50.190;19.178;2023-05-19T06:08:17;99546.52;;;10.16;93.54
41102;BME280;26845;50.190;19.178;2023-05-19T06:11:01;99549.79;;;10.22;93.99
41102;BME280;26845;50.190;19.178;2023-05-19T06:13:35;99552.98;;;10.31;94.03
41102;BME280;26845;50.190;19.178;2023-05-19T06:16:08;99555.33;;;10.38;93.68
41102;BME280;26845;50.190;19.178;2023-05-19T06:18:42;99551.10;;;10.39;93.60
41102;BME280;26845;50.190;19.178;2023-05-19T06:21:21;99559.13;;;10.43;93.45
41102;BME280;26845;50.190;19.178;2023-05-19T06:23:54;99562.38;;;10.41;93.35
41102;BME280;26845;50.190;19.178;2023-05-19T06:26:28;99564.34;;;10.38;93.39
41102;BME280;26845;50.190;19.178;2023-05-19T06:29:01;99565.06;;;10.34;93.34
41102;BME280;26845;50.190;19.178;2023-05-19T06:31:38;99567.52;;;10.35;93.50
41102;BME280;26845;50.190;19.178;2023-05-19T06:34:22;99562.48;;;10.41;93.45
41102;BME280;26845;50.190;19.178;2023-05-19T06:36:56;99561.47;;;10.41;93.36
41102;BME280;26845;50.190;19.178;2023-05-19T06:39:29;99554.88;;;10.45;93.60
41102;BME280;26845;50.190;19.178;2023-05-19T06:42:03;99553.90;;;10.50;93.31
41102;BME280;26845;50.190;19.178;2023-05-19T06:44:37;99557.71;;;10.48;93.01
41102;BME280;26845;50.190;19.178;2023-05-19T06:47:16;99557.96;;;10.47;93.22
41102;BME280;26845;50.190;19.178;2023-05-19T06:49:54;99555.90;;;10.48;93.38
41102;BME280;26845;50.190;19.178;2023-05-19T06:52:28;99554.09;;;10.50;93.35
41102;BME280;26845;50.190;19.178;2023-05-19T06:55:02;99555.92;;;10.51;93.19
41102;BME280;26845;50.190;19.178;2023-05-19T06:57:35;99560.50;;;10.48;93.11
41102;BME280;26845;50.190;19.178;2023-05-19T07:00:09;99562.21;;;10.52;93.54
41102;BME280;26845;50.190;19.178;2023-05-19T07:02:43;99560.91;;;10.59;93.28
41102;BME280;26845;50.190;19.178;2023-05-19T07:05:16;99559.95;;;10.64;93.16
41102;BME280;26845;50.190;19.178;2023-05-19T07:08:00;99561.66;;;10.65;92.97
41102;BME280;26845;50.190;19.178;2023-05-19T07:10:33;99557.39;;;10.62;92.89
41102;BME280;26845;50.190;19.178;2023-05-19T07:13:07;99560.11;;;10.61;92.96
41102;BME280;26845;50.190;19.178;2023-05-19T07:15:40;99556.53;;;10.67;93.15
41102;BME280;26845;50.190;19.178;2023-05-19T07:18:14;99555.03;;;10.67;92.94
41102;BME280;26845;50.190;19.178;2023-05-19T07:20:47;99559.15;;;10.69;92.83
41102;BME280;26845;50.190;19.178;2023-05-19T07:23:21;99548.80;;;10.70;92.82
41102;BME280;26845;50.190;19.178;2023-05-19T07:25:55;99557.31;;;10.74;92.62
41102;BME280;26845;50.190;19.178;2023-05-19T07:28:29;99555.27;;;10.72;92.60
41102;BME280;26845;50.190;19.178;2023-05-19T07:31:03;99555.73;;;10.71;92.63
41102;BME280;26845;50.190;19.178;2023-05-19T07:33:36;99556.20;;;10.70;92.62
41102;BME280;26845;50.190;19.178;2023-05-19T07:36:10;99562.28;;;10.76;93.00
41102;BME280;26845;50.190;19.178;2023-05-19T07:38:44;99559.16;;;10.84;92.81
41102;BME280;26845;50.190;19.178;2023-05-19T07:41:20;99552.77;;;10.89;92.99
41102;BME280;26845;50.190;19.178;2023-05-19T07:43:54;99551.08;;;10.93;92.97
41102;BME280;26845;50.190;19.178;2023-05-19T07:46:51;99555.48;;;11.00;92.97
41102;BME280;26845;50.190;19.178;2023-05-19T07:49:30;99560.95;;;11.07;92.95
41102;BME280;26845;50.190;19.178;2023-05-19T07:52:09;99563.94;;;11.15;92.96
41102;BME280;26845;50.190;19.178;2023-05-19T07:55:08;99563.95;;;11.21;92.66
41102;BME280;26845;50.190;19.178;2023-05-19T07:58:07;99569.06;;;11.35;92.94
41102;BME280;26845;50.190;19.178;2023-05-19T08:00:47;99565.41;;;11.44;92.43
41102;BME280;26845;50.190;19.178;2023-05-19T08:03:27;99563.86;;;11.50;92.52
41102;BME280;26845;50.190;19.178;2023-05-19T08:06:33;99561.30;;;11.56;92.58
41102;BME280;26845;50.190;19.178;2023-05-19T08:09:07;99563.10;;;11.56;92.12
41102;BME280;26845;50.190;19.178;2023-05-19T08:11:41;99559.19;;;11.50;92.00
41102;BME280;26845;50.190;19.178;2023-05-19T08:14:15;99557.98;;;11.53;92.46
41102;BME280;26845;50.190;19.178;2023-05-19T08:16:48;99561.82;;;11.58;91.98
41102;BME280;26845;50.190;19.178;2023-05-19T08:19:22;99562.13;;;11.58;92.16
41102;BME280;26845;50.190;19.178;2023-05-19T08:21:56;99559.65;;;11.66;91.98
41102;BME280;26845;50.190;19.178;2023-05-19T08:24:29;99561.00;;;11.71;91.91
41102;BME280;26845;50.190;19.178;2023-05-19T08:27:26;99558.89;;;11.77;91.91
41102;BME280;26845;50.190;19.178;2023-05-19T08:30:35;99557.74;;;11.75;91.60
41102;BME280;26845;50.190;19.178;2023-05-19T08:33:29;99558.11;;;11.80;91.74
41102;BME280;26845;50.190;19.178;2023-05-19T08:36:02;99561.36;;;11.82;91.16
41102;BME280;26845;50.190;19.178;2023-05-19T08:38:36;99562.95;;;11.87;91.63
41102;BME280;26845;50.190;19.178;2023-05-19T08:41:10;99568.41;;;11.96;91.72
41102;BME280;26845;50.190;19.178;2023-05-19T08:43:43;99569.45;;;12.03;91.21
41102;BME280;26845;50.190;19.178;2023-05-19T08:46:17;99570.85;;;12.03;90.88
41102;BME280;26845;50.190;19.178;2023-05-19T08:48:53;99574.09;;;11.99;90.73
41102;BME280;26845;50.190;19.178;2023-05-19T08:54:42;99574.35;;;12.09;90.96
41102;BME280;26845;50.190;19.178;2023-05-19T08:57:42;99572.80;;;12.14;90.82
41102;BME280;26845;50.190;19.178;2023-05-19T09:00:19;99569.20;;;12.15;90.49
41102;BME280;26845;50.190;19.178;2023-05-19T09:02:54;99566.30;;;12.20;90.78
41102;BME280;26845;50.190;19.178;2023-05-19T09:05:31;99568.77;;;12.24;90.44
41102;BME280;26845;50.190;19.178;2023-05-19T09:08:05;99569.70;;;12.28;90.65
41102;BME280;26845;50.190;19.178;2023-05-19T09:10:38;99567.97;;;12.36;90.64
41102;BME280;26845;50.190;19.178;2023-05-19T09:13:35;99569.23;;;12.47;90.87
41102;BME280;26845;50.190;19.178;2023-05-19T09:16:20;99573.88;;;12.60;90.70
41102;BME280;26845;50.190;19.178;2023-05-19T09:19:00;99567.59;;;12.65;90.21
41102;BME280;26845;50.190;19.178;2023-05-19T09:21:43;99572.92;;;12.70;89.91
41102;BME280;26845;50.190;19.178;2023-05-19T09:24:25;99573.29;;;12.78;90.04
41102;BME280;26845;50.190;19.178;2023-05-19T09:27:01;99571.84;;;12.79;89.72
41102;BME280;26845;50.190;19.178;2023-05-19T09:29:55;99576.44;;;12.83;90.00
41102;BME280;26845;50.190;19.178;2023-05-19T09:32:32;99579.88;;;12.89;89.80
41102;BME280;26845;50.190;19.178;2023-05-19T09:35:06;99578.32;;;12.89;89.27
41102;BME280;26845;50.190;19.178;2023-05-19T09:38:03;99575.45;;;12.90;89.38
41102;BME280;26845;50.190;19.178;2023-05-19T09:40:37;99576.22;;;12.88;89.21
41102;BME280;26845;50.190;19.178;2023-05-19T09:43:11;99574.23;;;12.80;88.94
41102;BME280;26845;50.190;19.178;2023-05-19T09:46:08;99570.63;;;12.73;88.95
41102;BME280;26845;50.190;19.178;2023-05-19T09:48:46;99566.80;;;12.75;89.29
41102;BME280;26845;50.190;19.178;2023-05-19T09:51:20;99565.55;;;12.83;89.53
41102;BME280;26845;50.190;19.178;2023-05-19T09:53:53;99565.37;;;12.91;89.39
41102;BME280;26845;50.190;19.178;2023-05-19T09:56:30;99566.50;;;12.91;89.06
41102;BME280;26845;50.190;19.178;2023-05-19T09:59:02;99566.89;;;12.98;89.25
41102;BME280;26845;50.190;19.178;2023-05-19T10:02:11;99559.95;;;13.04;88.79
41102;BME280;26845;50.190;19.178;2023-05-19T10:05:18;99561.70;;;13.11;89.15
41102;BME280;26845;50.190;19.178;2023-05-19T10:07:57;99560.56;;;13.14;88.56
41102;BME280;26845;50.190;19.178;2023-05-19T10:11:03;99559.54;;;13.08;88.22
41102;BME280;26845;50.190;19.178;2023-05-19T10:14:09;99554.29;;;13.10;88.47
41102;BME280;26845;50.190;19.178;2023-05-19T10:17:14;99556.31;;;13.12;88.32
41102;BME280;26845;50.190;19.178;2023-05-19T10:20:11;99562.57;;;13.10;88.30
41102;BME280;26845;50.190;19.178;2023-05-19T10:23:17;99558.77;;;13.14;88.35
41102;BME280;26845;50.190;19.178;2023-05-19T10:26:25;99554.11;;;13.25;88.45
41102;BME280;26845;50.190;19.178;2023-05-19T10:29:11;99551.87;;;13.35;88.48
41102;BME280;26845;50.190;19.178;2023-05-19T10:32:18;99549.45;;;13.41;87.97
41102;BME280;26845;50.190;19.178;2023-05-19T10:35:32;99549.30;;;13.48;88.35
41102;BME280;26845;50.190;19.178;2023-05-19T10:38:44;99548.17;;;13.58;87.70
41102;BME280;26845;50.190;19.178;2023-05-19T10:47:48;99548.05;;;13.54;87.28
41102;BME280;26845;50.190;19.178;2023-05-19T10:50:52;99546.96;;;13.54;87.55
41102;BME280;26845;50.190;19.178;2023-05-19T10:53:57;99543.52;;;13.62;87.52
41102;BME280;26845;50.190;19.178;2023-05-19T10:57:03;99540.36;;;13.76;87.57
41102;BME280;26845;50.190;19.178;2023-05-19T10:59:40;99537.61;;;13.83;87.06
41102;BME280;26845;50.190;19.178;2023-05-19T11:02:46;99535.68;;;13.84;86.62
41102;BME280;26845;50.190;19.178;2023-05-19T11:05:52;99537.05;;;13.91;87.44
41102;BME280;26845;50.190;19.178;2023-05-19T11:09:08;99532.10;;;13.99;86.97
41102;BME280;26845;50.190;19.178;2023-05-19T11:12:07;99535.97;;;13.90;86.13
41102;BME280;26845;50.190;19.178;2023-05-19T11:15:13;99537.52;;;13.78;86.22
41102;BME280;26845;50.190;19.178;2023-05-19T11:18:19;99539.01;;;13.77;86.22
41102;BME280;26845;50.190;19.178;2023-05-19T11:21:40;99540.33;;;13.80;86.37
41102;BME280;26845;50.190;19.178;2023-05-19T11:24:46;99536.27;;;13.85;85.95
41102;BME280;26845;50.190;19.178;2023-05-19T11:27:52;99538.14;;;13.84;86.26
41102;BME280;26845;50.190;19.178;2023-05-19T11:30:57;99538.84;;;13.98;86.73
41102;BME280;26845;50.190;19.178;2023-05-19T11:34:03;99539.08;;;14.09;86.67
41102;BME280;26845;50.190;19.178;2023-05-19T11:37:09;99542.81;;;14.20;86.55
41102;BME280;26845;50.190;19.178;2023-05-19T11:40:15;99543.37;;;14.29;86.17
41102;BME280;26845;50.190;19.178;2023-05-19T11:43:21;99545.14;;;14.34;86.28
41102;BME280;26845;50.190;19.178;2023-05-19T11:46:27;99548.83;;;14.38;86.22
41102;BME280;26845;50.190;19.178;2023-05-19T11:49:32;99543.21;;;14.42;85.99
41102;BME280;26845;50.190;19.178;2023-05-19T11:52:42;99544.30;;;14.45;85.58
41102;BME280;26845;50.190;19.178;2023-05-19T11:55:45;99548.14;;;14.51;85.72
41102;BME280;26845;50.190;19.178;2023-05-19T11:58:51;99548.54;;;14.56;85.62
41102;BME280;26845;50.190;19.178;2023-05-19T12:01:57;99547.64;;;14.64;85.59
41102;BME280;26845;50.190;19.178;2023-05-19T12:05:02;99545.50;;;14.76;85.64
41102;BME280;26845;50.190;19.178;2023-05-19T12:08:08;99545.96;;;14.80;85.13
41102;BME280;26845;50.190;19.178;2023-05-19T12:11:14;99544.59;;;14.83;85.21
41102;BME280;26845;50.190;19.178;2023-05-19T12:14:20;99544.73;;;14.83;84.63
41102;BME280;26845;50.190;19.178;2023-05-19T12:17:30;99546.48;;;14.78;84.42
41102;BME280;26845;50.190;19.178;2023-05-19T12:20:35;99545.56;;;14.73;84.00
41102;BME280;26845;50.190;19.178;2023-05-19T12:23:40;99538.41;;;14.73;84.12
41102;BME280;26845;50.190;19.178;2023-05-19T12:26:46;99539.23;;;14.75;84.61
41102;BME280;26845;50.190;19.178;2023-05-19T12:29:53;99537.34;;;14.81;84.68
41102;BME280;26845;50.190;19.178;2023-05-19T12:32:58;99531.57;;;14.79;83.81
41102;BME280;26845;50.190;19.178;2023-05-19T12:36:04;99529.39;;;14.72;84.22
41102;BME280;26845;50.190;19.178;2023-05-19T12:39:10;99532.71;;;14.71;84.25
41102;BME280;26845;50.190;19.178;2023-05-19T12:42:16;99530.79;;;14.68;84.02
41102;BME280;26845;50.190;19.178;2023-05-19T12:45:22;99526.25;;;14.68;84.10
41102;BME280;26845;50.190;19.178;2023-05-19T12:48:28;99528.91;;;14.67;84.12
41102;BME280;26845;50.190;19.178;2023-05-19T12:51:35;99533.52;;;14.68;84.25
41102;BME280;26845;50.190;19.178;2023-05-19T12:54:39;99534.66;;;14.71;84.05
41102;BME280;26845;50.190;19.178;2023-05-19T12:57:49;99529.55;;;14.70;83.84
41102;BME280;26845;50.190;19.178;2023-05-19T13:00:56;99527.04;;;14.66;83.97
41102;BME280;26845;50.190;19.178;2023-05-19T13:04:00;99522.66;;;14.67;83.74
41102;BME280;26845;50.190;19.178;2023-05-19T13:07:17;99522.71;;;14.71;83.83
41102;BME280;26845;50.190;19.178;2023-05-19T13:10:23;99518.85;;;14.71;83.84
41102;BME280;26845;50.190;19.178;2023-05-19T13:13:30;99517.77;;;14.71;83.72
41102;BME280;26845;50.190;19.178;2023-05-19T13:16:35;99516.64;;;14.71;83.68
41102;BME280;26845;50.190;19.178;2023-05-19T13:19:43;99515.33;;;14.65;83.54
41102;BME280;26845;50.190;19.178;2023-05-19T13:22:49;99517.77;;;14.63;83.55
41102;BME280;26845;50.190;19.178;2023-05-19T13:25:55;99515.78;;;14.65;83.75
41102;BME280;26845;50.190;19.178;2023-05-19T13:29:01;99514.30;;;14.64;83.46
41102;BME280;26845;50.190;19.178;2023-05-19T13:32:06;99513.79;;;14.68;83.35
41102;BME280;26845;50.190;19.178;2023-05-19T13:35:13;99512.21;;;14.67;83.63
41102;BME280;26845;50.190;19.178;2023-05-19T13:38:19;99516.52;;;14.72;83.75
41102;BME280;26845;50.190;19.178;2023-05-19T13:41:24;99514.65;;;14.79;83.44
41102;BME280;26845;50.190;19.178;2023-05-19T13:44:31;99510.96;;;14.77;83.35
41102;BME280;26845;50.190;19.178;2023-05-19T13:47:37;99515.43;;;14.70;83.15
41102;BME280;26845;50.190;19.178;2023-05-19T13:50:42;99511.49;;;14.58;82.91
41102;BME280;26845;50.190;19.178;2023-05-19T13:53:48;99510.89;;;14.52;83.38
41102;BME280;26845;50.190;19.178;2023-05-19T13:56:54;99510.98;;;14.56;83.29
41102;BME280;26845;50.190;19.178;2023-05-19T13:59:59;99507.09;;;14.56;83.18
41102;BME280;26845;50.190;19.178;2023-05-19T14:03:05;99511.39;;;14.58;83.24
41102;BME280;26845;50.190;19.178;2023-05-19T14:06:11;99513.70;;;14.56;82.97
41102;BME280;26845;50.190;19.178;2023-05-19T14:09:17;99521.48;;;14.49;82.84
41102;BME280;26845;50.190;19.178;2023-05-19T14:12:24;99519.34;;;14.46;83.12
41102;BME280;26845;50.190;19.178;2023-05-19T14:15:28;99519.30;;;14.47;83.28
41102;BME280;26845;50.190;19.178;2023-05-19T14:18:34;99515.97;;;14.43;83.02
41102;BME280;26845;50.190;19.178;2023-05-19T14:21:40;99521.04;;;14.34;82.95
41102;BME280;26845;50.190;19.178;2023-05-19T14:24:45;99521.15;;;14.24;83.13
41102;BME280;26845;50.190;19.178;2023-05-19T14:27:51;99530.16;;;14.22;83.27
41102;BME280;26845;50.190;19.178;2023-05-19T14:31:02;99530.96;;;14.17;82.88
41102;BME280;26845;50.190;19.178;2023-05-19T14:34:08;99530.39;;;14.16;83.27
41102;BME280;26845;50.190;19.178;2023-05-19T14:37:13;99526.86;;;14.15;83.15
41102;BME280;26845;50.190;19.178;2023-05-19T14:40:19;99525.48;;;14.08;83.15
41102;BME280;26845;50.190;19.178;2023-05-19T14:43:25;99528.21;;;14.13;83.30
41102;BME280;26845;50.190;19.178;2023-05-19T14:46:31;99529.65;;;14.15;83.29
41102;BME280;26845;50.190;19.178;2023-05-19T14:49:37;99528.86;;;14.18;83.26
41102;BME280;26845;50.190;19.178;2023-05-19T14:52:43;99526.48;;;14.25;83.30
41102;BME280;26845;50.190;19.178;2023-05-19T14:55:49;99525.11;;;14.22;82.97
41102;BME280;26845;50.190;19.178;2023-05-19T14:58:55;99523.40;;;14.18;83.25
41102;BME280;26845;50.190;19.178;2023-05-19T15:02:01;99522.55;;;14.20;83.32